createdAt,value
2017-07-19T00:01:04.688Z,99.90
2017-07-19T00:03:32.223Z,99.90
2017-07-19T00:05:59.720Z,99.90
2017-07-19T00:08:27.837Z,99.90
2017-07-19T00:10:55.981Z,99.90
2017-07-19T00:13:23.977Z,99.90
2017-07-19T00:15:52.014Z,99.90
2017-07-19T00:18:20.222Z,99.90
2017-07-19T00:20:49.212Z,99.90
2017-07-19T00:23:18.614Z,99.90
2017-07-19T00:25:46.377Z,99.90
2017-07-19T00:28:14.246Z,99.90
2017-07-19T00:30:42.313Z,99.90
2017-07-19T00:33:10.344Z,99.90
2017-07-19T00:35:38.455Z,99.90
2017-07-19T00:38:05.930Z,99.90
2017-07-19T00:40:33.389Z,99.90
2017-07-19T00:43:00.851Z,99.90
2017-07-19T00:45:28.278Z,99.90
2017-07-19T00:47:55.728Z,99.90
2017-07-19T00:50:23.315Z,99.90
2017-07-19T00:52:50.790Z,99.90
2017-07-19T00:55:18.237Z,99.90
2017-07-19T00:57:45.666Z,99.90
2017-07-19T01:00:13.149Z,99.90
2017-07-19T01:02:40.590Z,99.90
2017-07-19T01:05:08.024Z,99.90
2017-07-19T01:07:35.514Z,99.90
2017-07-19T01:10:02.971Z,99.90
2017-07-19T01:12:30.417Z,99.90
2017-07-19T01:14:57.983Z,99.90
2017-07-19T01:17:25.411Z,99.90
2017-07-19T01:19:52.977Z,99.90
2017-07-19T01:22:20.419Z,99.90
2017-07-19T01:24:47.846Z,99.90
2017-07-19T01:27:16.082Z,99.90
2017-07-19T01:29:43.544Z,99.90
2017-07-19T01:32:11.011Z,99.90
2017-07-19T01:34:39.214Z,99.90
2017-07-19T01:37:06.736Z,99.90
2017-07-19T01:39:34.166Z,99.90
2017-07-19T01:42:01.626Z,99.90
2017-07-19T01:44:29.075Z,99.90
2017-07-19T01:46:56.502Z,99.90
2017-07-19T01:49:23.998Z,99.90
2017-07-19T01:51:51.577Z,99.90
2017-07-19T01:54:19.019Z,99.90
2017-07-19T01:56:46.460Z,99.90
2017-07-19T01:59:13.919Z,99.90
2017-07-19T02:01:41.408Z,99.90
2017-07-19T02:04:08.870Z,99.90
2017-07-19T02:06:36.401Z,99.90
2017-07-19T02:09:03.846Z,99.90
2017-07-19T02:11:31.274Z,99.90
2017-07-19T02:13:58.780Z,99.90
2017-07-19T02:16:26.222Z,99.90
2017-07-19T02:18:53.686Z,99.90
2017-07-19T02:21:21.121Z,99.90
2017-07-19T02:23:48.542Z,99.90
2017-07-19T02:26:15.984Z,99.90
2017-07-19T02:28:44.179Z,99.90
2017-07-19T02:31:11.656Z,99.90
2017-07-19T02:33:39.106Z,99.90
2017-07-19T02:36:06.557Z,99.90
2017-07-19T02:38:34.043Z,99.90
2017-07-19T02:41:01.526Z,99.90
2017-07-19T02:43:28.954Z,99.90
2017-07-19T02:45:56.415Z,99.90
2017-07-19T02:48:24.714Z,99.90
2017-07-19T02:50:52.260Z,99.90
2017-07-19T02:53:19.721Z,99.90
2017-07-19T02:55:47.155Z,99.90
2017-07-19T02:58:14.610Z,99.90
2017-07-19T03:00:42.103Z,99.90
2017-07-19T03:03:09.640Z,99.90
2017-07-19T03:05:37.082Z,99.90
2017-07-19T03:08:04.625Z,99.90
2017-07-19T03:10:32.102Z,99.90
2017-07-19T03:12:59.636Z,99.90
2017-07-19T03:15:27.090Z,99.90
2017-07-19T03:17:54.546Z,99.90
2017-07-19T03:20:21.991Z,99.90
2017-07-19T03:22:49.427Z,99.90
2017-07-19T03:25:16.938Z,99.90
2017-07-19T03:27:44.368Z,99.90
2017-07-19T03:30:11.850Z,99.90
2017-07-19T03:32:39.279Z,99.90
2017-07-19T03:35:06.715Z,99.90
2017-07-19T03:37:34.158Z,99.90
2017-07-19T03:40:01.623Z,99.90
2017-07-19T03:42:29.038Z,99.90
2017-07-19T03:44:57.262Z,99.90
2017-07-19T03:47:24.741Z,99.90
2017-07-19T03:49:52.239Z,99.90
2017-07-19T03:52:20.487Z,99.90
2017-07-19T03:54:47.917Z,99.90
2017-07-19T03:57:15.405Z,99.90
2017-07-19T03:59:42.837Z,99.90
2017-07-19T04:02:10.279Z,99.90
2017-07-19T04:04:37.708Z,99.90
2017-07-19T04:07:05.227Z,99.90
2017-07-19T04:09:32.668Z,99.90
2017-07-19T04:12:00.133Z,99.90
2017-07-19T04:14:27.588Z,99.90
2017-07-19T04:16:55.047Z,99.90
2017-07-19T04:19:22.515Z,99.90
2017-07-19T04:21:49.966Z,99.90
2017-07-19T04:24:17.550Z,99.90
2017-07-19T04:26:45.793Z,99.90
2017-07-19T04:29:13.239Z,99.90
2017-07-19T04:31:40.697Z,99.90
2017-07-19T04:34:08.159Z,99.90
2017-07-19T04:36:35.692Z,99.90
2017-07-19T04:39:03.115Z,99.90
2017-07-19T04:41:31.307Z,99.90
2017-07-19T04:43:58.783Z,99.90
2017-07-19T04:46:26.239Z,99.90
2017-07-19T04:48:53.689Z,99.90
2017-07-19T04:51:21.137Z,99.90
2017-07-19T04:53:48.550Z,99.90
2017-07-19T04:56:16.755Z,99.90
2017-07-19T04:58:44.182Z,99.90
2017-07-19T05:01:12.415Z,99.90
2017-07-19T05:03:39.870Z,99.90
2017-07-19T05:06:07.310Z,99.90
2017-07-19T05:08:34.790Z,99.90
2017-07-19T05:11:02.249Z,99.90
2017-07-19T05:13:29.710Z,99.90
2017-07-19T05:15:57.134Z,99.90
2017-07-19T05:18:24.734Z,99.90
2017-07-19T05:20:52.271Z,99.90
2017-07-19T05:23:19.757Z,99.90
2017-07-19T05:25:47.195Z,99.90
2017-07-19T05:28:14.674Z,99.90
2017-07-19T05:30:42.234Z,99.90
2017-07-19T05:33:09.656Z,99.90
2017-07-19T05:35:37.121Z,99.90
2017-07-19T05:38:04.558Z,99.90
2017-07-19T05:40:32.054Z,99.90
2017-07-19T05:42:59.495Z,99.90
2017-07-19T05:45:26.974Z,99.90
2017-07-19T05:47:55.457Z,99.90
2017-07-19T05:50:23.694Z,99.90
2017-07-19T05:52:51.286Z,99.90
2017-07-19T05:55:19.546Z,99.90
2017-07-19T05:57:46.987Z,99.90
2017-07-19T06:00:14.434Z,99.90
2017-07-19T06:02:41.927Z,99.90
2017-07-19T06:05:09.456Z,99.90
2017-07-19T06:07:37.003Z,99.90
2017-07-19T06:10:04.460Z,99.90
2017-07-19T06:12:31.911Z,99.90
2017-07-19T06:15:00.162Z,99.90
2017-07-19T06:17:27.616Z,99.90
2017-07-19T06:19:55.048Z,99.90
2017-07-19T06:22:22.533Z,99.90
2017-07-19T06:24:50.004Z,99.90
2017-07-19T06:27:18.243Z,99.90
2017-07-19T06:29:45.704Z,99.90
2017-07-19T06:32:13.178Z,99.90
2017-07-19T06:34:40.630Z,99.90
2017-07-19T06:37:08.164Z,99.90
2017-07-19T06:39:35.593Z,99.90
2017-07-19T06:42:03.051Z,99.90
2017-07-19T06:44:31.267Z,99.90
2017-07-19T06:46:58.720Z,99.90
2017-07-19T06:49:26.186Z,99.90
2017-07-19T06:51:53.718Z,99.90
2017-07-19T06:54:21.141Z,99.90
2017-07-19T06:56:48.590Z,99.90
2017-07-19T06:59:16.050Z,99.90
2017-07-19T07:01:43.506Z,99.90
2017-07-19T07:04:10.942Z,99.90
2017-07-19T07:06:38.550Z,99.90
2017-07-19T07:09:06.104Z,99.90
2017-07-19T07:11:33.664Z,99.90
2017-07-19T07:14:01.162Z,99.90
2017-07-19T07:16:28.629Z,99.90
2017-07-19T07:18:56.088Z,99.90
2017-07-19T07:21:23.516Z,99.90
2017-07-19T07:23:51.728Z,99.90
2017-07-19T07:26:19.274Z,99.90
2017-07-19T07:28:46.758Z,99.90
2017-07-19T07:31:14.198Z,99.90
2017-07-19T07:33:42.346Z,99.90
2017-07-19T07:36:11.284Z,99.90
2017-07-19T07:38:38.752Z,99.90
2017-07-19T07:41:06.264Z,99.90
2017-07-19T07:43:33.712Z,99.90
2017-07-19T07:46:01.196Z,99.90
2017-07-19T07:48:28.647Z,99.90
2017-07-19T07:50:56.109Z,99.90
2017-07-19T07:53:23.546Z,99.90
2017-07-19T07:55:51.073Z,99.90
2017-07-19T07:58:18.594Z,99.90
2017-07-19T08:00:46.041Z,99.90
2017-07-19T08:03:13.506Z,99.90
2017-07-19T08:05:41.044Z,99.90
2017-07-19T08:08:08.802Z,99.90
2017-07-19T08:10:37.542Z,99.90
2017-07-19T08:13:05.774Z,99.90
2017-07-19T08:15:33.261Z,99.90
2017-07-19T08:18:00.688Z,99.90
2017-07-19T08:20:28.154Z,99.90
2017-07-19T08:22:55.599Z,99.90
2017-07-19T08:25:23.078Z,99.90
2017-07-19T08:27:50.594Z,99.90
2017-07-19T08:30:18.082Z,99.90
2017-07-19T08:32:45.518Z,99.90
2017-07-19T08:35:13.064Z,99.90
2017-07-19T08:37:40.624Z,99.90
2017-07-19T08:40:08.289Z,99.90
2017-07-19T08:42:35.726Z,99.90
2017-07-19T08:45:03.151Z,99.90
2017-07-19T08:47:31.402Z,99.90
2017-07-19T08:49:59.085Z,99.90
2017-07-19T08:52:26.498Z,99.90
2017-07-19T08:54:53.958Z,99.90
2017-07-19T08:57:21.396Z,99.90
2017-07-19T08:59:48.908Z,99.90
2017-07-19T09:02:16.326Z,99.90
2017-07-19T09:04:43.800Z,99.90
2017-07-19T09:07:11.262Z,99.90
2017-07-19T09:09:38.811Z,99.90
2017-07-19T09:12:06.368Z,99.90
2017-07-19T09:14:33.827Z,99.90
2017-07-19T09:17:01.278Z,99.90
2017-07-19T09:19:28.747Z,99.90
2017-07-19T09:21:56.206Z,99.90
2017-07-19T09:24:23.643Z,99.90
2017-07-19T09:26:51.182Z,99.90
2017-07-19T09:29:18.657Z,99.90
2017-07-19T09:31:46.162Z,99.90
2017-07-19T09:34:14.363Z,99.90
2017-07-19T09:36:41.854Z,99.90
2017-07-19T09:39:09.305Z,99.90
2017-07-19T09:41:36.762Z,99.90
2017-07-19T09:44:04.234Z,99.90
2017-07-19T09:46:31.706Z,99.90
2017-07-19T09:48:59.967Z,99.90
2017-07-19T09:51:27.567Z,99.90
2017-07-19T09:53:55.102Z,99.90
2017-07-19T09:56:23.420Z,99.90
2017-07-19T09:58:50.843Z,99.90
2017-07-19T10:01:19.061Z,99.90
2017-07-19T10:03:46.541Z,99.90
2017-07-19T10:06:13.984Z,99.90
2017-07-19T10:08:41.463Z,99.90
2017-07-19T10:11:09.047Z,99.90
2017-07-19T10:13:37.248Z,99.90
2017-07-19T10:16:04.782Z,99.90
2017-07-19T10:18:32.295Z,99.90
2017-07-19T10:20:59.761Z,99.90
2017-07-19T10:23:27.241Z,99.90
2017-07-19T10:25:55.522Z,99.90
2017-07-19T10:28:23.763Z,99.90
2017-07-19T10:30:51.207Z,99.90
2017-07-19T10:33:18.684Z,99.90
2017-07-19T10:35:46.121Z,99.90
2017-07-19T10:38:13.683Z,99.90
2017-07-19T10:40:41.153Z,99.90
2017-07-19T10:43:08.609Z,99.90
2017-07-19T10:45:36.051Z,99.90
2017-07-19T10:48:03.479Z,99.90
2017-07-19T10:50:31.045Z,99.90
2017-07-19T10:52:58.463Z,99.90
2017-07-19T10:55:26.655Z,99.90
2017-07-19T10:57:54.096Z,99.90
2017-07-19T11:00:21.583Z,99.90
2017-07-19T11:02:49.066Z,99.90
2017-07-19T11:05:16.502Z,99.90
2017-07-19T11:07:43.974Z,99.90
2017-07-19T11:10:11.537Z,99.90
2017-07-19T11:12:38.956Z,99.90
2017-07-19T11:15:06.462Z,99.90
2017-07-19T11:17:33.899Z,99.90
2017-07-19T11:20:01.400Z,99.90
2017-07-19T11:22:29.641Z,99.90
2017-07-19T11:24:57.067Z,99.90
2017-07-19T11:27:24.543Z,99.90
2017-07-19T11:29:52.006Z,99.90
2017-07-19T11:32:19.452Z,99.90
2017-07-19T11:34:47.727Z,99.90
2017-07-19T11:37:15.218Z,99.90
2017-07-19T11:39:43.511Z,99.90
2017-07-19T11:42:11.706Z,99.90
2017-07-19T11:44:39.275Z,99.90
2017-07-19T11:47:06.759Z,99.90
2017-07-19T11:49:34.198Z,99.90
2017-07-19T11:52:06.826Z,99.90
2017-07-19T11:54:35.816Z,99.90
2017-07-19T11:57:04.018Z,99.90
2017-07-19T11:59:31.504Z,99.90
2017-07-19T12:01:59.148Z,99.90
2017-07-19T12:04:26.574Z,99.90
2017-07-19T12:06:54.239Z,99.90
2017-07-19T12:09:21.685Z,99.90
2017-07-19T12:11:49.911Z,99.90
2017-07-19T12:14:17.388Z,99.90
2017-07-19T12:16:44.845Z,99.90
2017-07-19T12:19:12.302Z,99.90
2017-07-19T12:21:39.743Z,99.90
2017-07-19T12:24:07.203Z,99.90
2017-07-19T12:26:34.739Z,99.90
2017-07-19T12:29:02.158Z,99.90
2017-07-19T12:31:29.597Z,99.90
2017-07-19T12:33:57.106Z,99.90
2017-07-19T12:36:24.565Z,99.90
2017-07-19T12:38:52.025Z,99.90
2017-07-19T12:41:19.487Z,99.90
2017-07-19T12:43:46.914Z,99.90
2017-07-19T12:46:14.412Z,99.90
2017-07-19T12:48:41.864Z,99.90
2017-07-19T12:51:09.287Z,99.90
2017-07-19T12:53:36.742Z,99.90
2017-07-19T12:56:04.234Z,99.90
2017-07-19T12:58:31.683Z,99.90
2017-07-19T13:00:59.116Z,99.90
2017-07-19T13:03:26.598Z,99.90
2017-07-19T13:05:54.174Z,99.90
2017-07-19T13:08:21.696Z,99.90
2017-07-19T13:10:49.199Z,99.90
2017-07-19T13:13:16.884Z,99.90
2017-07-19T13:15:45.075Z,99.90
2017-07-19T13:18:12.518Z,99.90
2017-07-19T13:20:40.102Z,99.90
2017-07-19T13:23:07.556Z,99.90
2017-07-19T13:25:35.043Z,99.90
2017-07-19T13:28:02.495Z,99.90
2017-07-19T13:30:30.094Z,99.90
2017-07-19T13:32:58.307Z,99.40
2017-07-19T13:35:25.780Z,99.40
2017-07-19T13:37:53.343Z,98.90
2017-07-19T13:40:20.768Z,98.70
2017-07-19T13:42:48.206Z,98.40
2017-07-19T13:45:15.742Z,98.10
2017-07-19T13:47:43.980Z,98.10
2017-07-19T13:50:11.491Z,98.10
2017-07-19T13:52:39.724Z,98.00
2017-07-19T13:55:07.275Z,98.00
2017-07-19T13:57:34.730Z,98.50
2017-07-19T14:00:02.222Z,98.30
2017-07-19T14:02:30.431Z,97.90
2017-07-19T14:04:57.891Z,97.90
2017-07-19T14:07:25.314Z,98.50
2017-07-19T14:09:53.580Z,98.20
2017-07-19T14:12:21.004Z,98.20
2017-07-19T14:14:48.467Z,98.50
2017-07-19T14:17:15.974Z,98.90
2017-07-19T14:19:44.384Z,99.30
2017-07-19T14:22:11.799Z,99.30
2017-07-19T14:24:40.011Z,99.80
2017-07-19T14:27:07.521Z,99.70
2017-07-19T14:29:35.089Z,99.70
2017-07-19T14:32:03.298Z,99.90
2017-07-19T14:34:30.801Z,99.90
2017-07-19T14:36:58.288Z,99.90
2017-07-19T14:39:25.767Z,99.90
2017-07-19T14:41:53.226Z,99.90
2017-07-19T14:44:20.789Z,99.90
2017-07-19T14:46:48.270Z,99.90
2017-07-19T14:49:15.727Z,99.90
2017-07-19T14:51:43.177Z,99.80
2017-07-19T14:54:10.611Z,99.90
2017-07-19T14:56:38.126Z,99.90
2017-07-19T14:59:05.575Z,99.90
2017-07-19T15:01:33.827Z,99.90
2017-07-19T15:04:01.303Z,99.90
2017-07-19T15:06:28.817Z,99.90
2017-07-19T15:08:56.252Z,99.90
2017-07-19T15:11:23.767Z,99.90
2017-07-19T15:13:51.183Z,99.90
2017-07-19T15:16:18.662Z,99.90
2017-07-19T15:18:46.113Z,99.90
2017-07-19T15:21:13.654Z,99.70
2017-07-19T15:23:41.070Z,99.90
2017-07-19T15:26:09.269Z,99.90
2017-07-19T15:28:37.254Z,99.90
2017-07-19T15:31:04.738Z,99.90
2017-07-19T15:33:32.199Z,99.90
2017-07-19T15:35:59.650Z,99.60
2017-07-19T15:38:27.076Z,98.20
2017-07-19T15:40:54.586Z,97.90
2017-07-19T15:43:22.027Z,96.80
2017-07-19T15:45:49.467Z,96.30
2017-07-19T15:48:17.008Z,96.20
2017-07-19T15:50:44.478Z,96.00
2017-07-19T15:53:11.928Z,95.90
2017-07-19T15:55:39.375Z,95.10
2017-07-19T15:58:06.906Z,94.80
2017-07-19T16:00:34.463Z,94.40
2017-07-19T16:03:02.656Z,93.60
2017-07-19T16:05:30.254Z,93.60
2017-07-19T16:07:57.699Z,93.70
2017-07-19T16:10:25.127Z,93.50
2017-07-19T16:12:52.638Z,94.10
2017-07-19T16:15:20.151Z,94.20
2017-07-19T16:17:47.636Z,94.70
2017-07-19T16:20:15.101Z,94.60
2017-07-19T16:22:42.530Z,94.60
2017-07-19T16:25:09.977Z,94.60
2017-07-19T16:27:37.500Z,94.50
2017-07-19T16:30:04.962Z,93.90
2017-07-19T16:32:33.320Z,93.00
2017-07-19T16:35:00.969Z,93.00
2017-07-19T16:37:28.398Z,92.40
2017-07-19T16:39:55.841Z,92.90
2017-07-19T16:42:23.304Z,92.40
2017-07-19T16:44:50.757Z,92.40
2017-07-19T16:47:18.248Z,93.00
2017-07-19T16:49:45.680Z,93.10
2017-07-19T16:52:13.222Z,93.10
2017-07-19T16:54:40.651Z,93.40
2017-07-19T16:57:08.150Z,93.60
2017-07-19T16:59:35.616Z,93.80
2017-07-19T17:02:03.081Z,93.70
2017-07-19T17:04:30.637Z,94.50
2017-07-19T17:06:58.072Z,95.20
2017-07-19T17:09:25.561Z,95.30
2017-07-19T17:11:52.979Z,95.80
2017-07-19T17:14:20.415Z,96.30
2017-07-19T17:16:47.858Z,96.80
2017-07-19T17:19:16.083Z,97.50
2017-07-19T17:21:43.548Z,97.50
2017-07-19T17:24:11.127Z,97.60
2017-07-19T17:26:38.755Z,97.80
2017-07-19T17:29:06.191Z,98.30
2017-07-19T17:31:33.648Z,98.50
2017-07-19T17:34:01.074Z,98.70
2017-07-19T17:36:29.346Z,99.00
2017-07-19T17:38:57.557Z,99.20
2017-07-19T17:41:24.999Z,99.20
2017-07-19T17:43:52.477Z,99.70
2017-07-19T17:46:19.962Z,99.70
2017-07-19T17:48:47.502Z,99.90
2017-07-19T17:51:14.976Z,99.90
2017-07-19T17:53:42.570Z,99.90
2017-07-19T17:56:10.014Z,99.90
2017-07-19T17:58:37.570Z,99.90
2017-07-19T18:01:04.990Z,99.90
2017-07-19T18:03:33.246Z,99.90
2017-07-19T18:06:00.684Z,99.90
2017-07-19T18:08:28.148Z,99.90
2017-07-19T18:10:55.654Z,99.90
2017-07-19T18:13:23.157Z,99.90
2017-07-19T18:15:50.640Z,99.90
2017-07-19T18:18:18.866Z,99.90
2017-07-19T18:20:46.316Z,99.90
2017-07-19T18:23:13.742Z,99.90
2017-07-19T18:25:41.208Z,99.90
2017-07-19T18:28:08.738Z,99.90
2017-07-19T18:30:37.022Z,99.90
2017-07-19T18:33:05.274Z,99.90
2017-07-19T18:35:32.739Z,99.90
2017-07-19T18:38:00.186Z,99.90
2017-07-19T18:40:27.803Z,99.90
2017-07-19T18:42:55.472Z,99.90
2017-07-19T18:45:22.917Z,99.90
2017-07-19T18:47:50.404Z,99.90
2017-07-19T18:50:17.924Z,99.90
2017-07-19T18:52:45.382Z,99.90
2017-07-19T18:55:12.855Z,99.90
2017-07-19T18:57:40.339Z,99.90
2017-07-19T19:00:07.798Z,99.90
2017-07-19T19:02:35.281Z,99.90
2017-07-19T19:05:03.479Z,99.90
2017-07-19T19:07:30.917Z,99.90
2017-07-19T19:09:59.139Z,99.90
2017-07-19T19:12:26.679Z,99.90
2017-07-19T19:14:54.274Z,99.90
2017-07-19T19:17:21.707Z,99.90
2017-07-19T19:19:49.186Z,99.90
2017-07-19T19:22:16.647Z,99.90
2017-07-19T19:24:44.191Z,99.90
2017-07-19T19:27:11.650Z,99.90
2017-07-19T19:29:39.098Z,99.90
2017-07-19T19:32:06.557Z,99.90
2017-07-19T19:34:34.004Z,99.90
2017-07-19T19:37:01.632Z,99.90
2017-07-19T19:39:29.150Z,99.90
2017-07-19T19:41:56.729Z,99.90
2017-07-19T19:44:24.155Z,99.90
2017-07-19T19:46:51.613Z,99.90
2017-07-19T19:49:19.220Z,99.90
2017-07-19T19:51:47.523Z,99.90
2017-07-19T19:54:14.978Z,99.90
2017-07-19T19:56:42.614Z,99.90
2017-07-19T19:59:10.068Z,99.90
2017-07-19T20:01:37.608Z,99.90
2017-07-19T20:04:05.037Z,99.90
2017-07-19T20:06:32.494Z,99.90
2017-07-19T20:08:59.942Z,99.90
2017-07-19T20:11:27.467Z,99.90
2017-07-19T20:13:55.032Z,99.90
2017-07-19T20:16:22.583Z,99.90
2017-07-19T20:18:50.131Z,99.90
2017-07-19T20:21:17.589Z,99.90
2017-07-19T20:23:45.039Z,99.90
2017-07-19T20:26:12.538Z,99.90
2017-07-19T20:28:40.742Z,99.90
2017-07-19T20:31:08.226Z,99.90
2017-07-19T20:33:35.687Z,99.90
2017-07-19T20:36:03.139Z,99.90
2017-07-19T20:38:30.607Z,99.90
2017-07-19T20:40:58.059Z,99.90
2017-07-19T20:43:25.535Z,99.90
2017-07-19T20:45:53.067Z,99.90
2017-07-19T20:48:20.525Z,99.90
2017-07-19T20:50:48.000Z,99.90
2017-07-19T20:53:15.530Z,99.90
2017-07-19T20:55:44.082Z,99.90
2017-07-19T20:58:11.564Z,99.90
2017-07-19T21:00:39.060Z,99.90
2017-07-19T21:03:06.698Z,99.90
2017-07-19T21:05:34.152Z,99.90
2017-07-19T21:08:01.623Z,99.90
2017-07-19T21:10:29.178Z,99.90
2017-07-19T21:12:56.619Z,99.90
2017-07-19T21:15:24.078Z,99.90
2017-07-19T21:17:51.534Z,99.90
2017-07-19T21:20:18.983Z,99.90
2017-07-19T21:22:46.542Z,99.90
2017-07-19T21:25:14.604Z,99.90
2017-07-19T21:27:42.881Z,99.90
2017-07-19T21:30:10.377Z,99.90
2017-07-19T21:32:37.927Z,99.90
2017-07-19T21:35:05.475Z,99.90
2017-07-19T21:37:32.951Z,99.90
2017-07-19T21:40:00.388Z,99.90
2017-07-19T21:42:27.826Z,99.90
2017-07-19T21:44:55.290Z,99.90
2017-07-19T21:47:22.758Z,99.90
2017-07-19T21:49:50.253Z,99.90
2017-07-19T21:52:18.524Z,99.90
2017-07-19T21:54:46.758Z,99.90
2017-07-19T21:57:14.266Z,99.90
2017-07-19T21:59:42.456Z,99.90
2017-07-19T22:02:09.899Z,99.90
2017-07-19T22:04:37.344Z,99.90
2017-07-19T22:07:05.601Z,99.90
2017-07-19T22:09:33.135Z,99.90
2017-07-19T22:12:00.583Z,99.90
2017-07-19T22:14:28.046Z,99.90
2017-07-19T22:16:55.504Z,99.90
2017-07-19T22:19:22.963Z,99.90
2017-07-19T22:21:50.423Z,99.90
2017-07-19T22:24:17.896Z,99.90
2017-07-19T22:26:45.433Z,99.90
2017-07-19T22:29:12.917Z,99.90
2017-07-19T22:31:41.159Z,99.90
2017-07-19T22:34:08.632Z,99.90
2017-07-19T22:36:36.091Z,99.90
2017-07-19T22:39:03.631Z,99.90
2017-07-19T22:41:31.095Z,99.90
2017-07-19T22:43:58.548Z,99.90
2017-07-19T22:46:26.018Z,99.90
2017-07-19T22:48:53.562Z,99.90
2017-07-19T22:51:21.030Z,99.90
2017-07-19T22:53:48.583Z,99.90
2017-07-19T22:56:16.051Z,99.90
2017-07-19T22:58:43.622Z,99.90
2017-07-19T23:01:11.158Z,99.90
2017-07-19T23:03:38.601Z,99.90
2017-07-19T23:06:06.077Z,99.90
2017-07-19T23:08:33.506Z,99.90
2017-07-19T23:11:00.953Z,99.90
2017-07-19T23:13:28.431Z,99.90
2017-07-19T23:15:55.880Z,99.90
2017-07-19T23:18:23.330Z,99.90
2017-07-19T23:20:50.790Z,99.90
2017-07-19T23:23:18.391Z,99.90
2017-07-19T23:25:48.195Z,99.90
2017-07-19T23:28:16.446Z,99.90
2017-07-19T23:30:43.878Z,99.90
2017-07-19T23:33:13.218Z,99.90
2017-07-19T23:35:40.751Z,99.90
2017-07-19T23:38:08.195Z,99.90
2017-07-19T23:40:35.670Z,99.90
2017-07-19T23:43:03.152Z,99.90
2017-07-19T23:45:30.590Z,99.90
2017-07-19T23:47:58.055Z,99.90
2017-07-19T23:50:25.494Z,99.90
2017-07-19T23:52:52.946Z,99.90
2017-07-19T23:55:20.499Z,99.90
2017-07-19T23:57:47.978Z,99.90
